createdAt,value
2018-09-16T00:01:28.156Z,4.93
2018-09-16T00:03:58.047Z,4.63
2018-09-16T00:06:27.842Z,4.70
2018-09-16T00:08:56.456Z,3.73
2018-09-16T00:11:25.092Z,4.27
2018-09-16T00:13:53.713Z,4.70
2018-09-16T00:16:22.251Z,3.80
2018-09-16T00:18:50.857Z,4.47
2018-09-16T00:21:19.656Z,3.90
2018-09-16T00:23:48.253Z,4.33
2018-09-16T00:26:17.618Z,4.63
2018-09-16T00:28:46.391Z,4.27
2018-09-16T00:31:15.095Z,4.57
2018-09-16T00:33:43.651Z,4.60
2018-09-16T00:36:12.206Z,4.43
2018-09-16T00:38:40.855Z,4.50
2018-09-16T00:41:09.615Z,4.87
2018-09-16T00:43:38.216Z,4.50
2018-09-16T00:46:07.154Z,4.80
2018-09-16T00:48:35.712Z,4.17
2018-09-16T00:51:04.280Z,4.37
2018-09-16T00:53:33.057Z,4.20
2018-09-16T00:56:01.672Z,4.20
2018-09-16T00:58:30.551Z,5.23
2018-09-16T01:00:59.976Z,4.73
2018-09-16T01:03:28.904Z,5.40
2018-09-16T01:06:03.335Z,4.17
2018-09-16T01:08:31.922Z,4.53
2018-09-16T01:11:00.579Z,4.10
2018-09-16T01:13:29.176Z,3.97
2018-09-16T01:15:58.516Z,4.30
2018-09-16T01:18:27.146Z,4.97
2018-09-16T01:20:55.920Z,4.53
2018-09-16T01:23:24.503Z,5.30
2018-09-16T01:25:53.021Z,4.73
2018-09-16T01:28:21.591Z,4.50
2018-09-16T01:30:50.367Z,4.10
2018-09-16T01:33:19.041Z,4.33
2018-09-16T01:35:47.651Z,4.33
2018-09-16T01:38:21.533Z,4.47
2018-09-16T01:40:51.057Z,4.20
2018-09-16T01:43:19.860Z,3.80
2018-09-16T01:45:48.564Z,4.80
2018-09-16T01:48:17.300Z,4.37
2018-09-16T01:50:46.018Z,4.20
2018-09-16T01:53:14.603Z,5.10
2018-09-16T01:55:48.002Z,4.43
2018-09-16T01:58:16.558Z,5.30
2018-09-16T02:00:45.685Z,4.43
2018-09-16T02:03:14.191Z,4.03
2018-09-16T02:05:48.071Z,4.37
2018-09-16T02:08:16.967Z,4.40
2018-09-16T02:10:45.598Z,4.90
2018-09-16T02:13:14.530Z,4.03
2018-09-16T02:15:43.278Z,4.50
2018-09-16T02:18:11.785Z,4.33
2018-09-16T02:20:40.367Z,4.10
2018-09-16T02:23:09.396Z,3.97
2018-09-16T02:25:37.894Z,4.67
2018-09-16T02:28:06.887Z,4.57
2018-09-16T02:30:35.457Z,3.90
2018-09-16T02:33:04.344Z,4.57
2018-09-16T02:35:32.895Z,3.83
2018-09-16T02:38:01.412Z,4.10
2018-09-16T02:40:30.740Z,4.67
2018-09-16T02:42:59.575Z,4.10
2018-09-16T02:45:28.782Z,4.80
2018-09-16T02:47:58.579Z,4.63
2018-09-16T02:50:27.937Z,5.50
2018-09-16T02:52:58.058Z,4.43
2018-09-16T02:55:26.855Z,5.23
2018-09-16T02:57:55.483Z,4.90
2018-09-16T03:00:24.001Z,4.73
2018-09-16T03:02:53.520Z,4.93
2018-09-16T03:05:27.365Z,5.50
2018-09-16T03:07:56.045Z,4.80
2018-09-16T03:10:24.687Z,5.07
2018-09-16T03:12:53.838Z,4.17
2018-09-16T03:15:22.742Z,3.67
2018-09-16T03:17:51.316Z,4.17
2018-09-16T03:20:20.216Z,4.20
2018-09-16T03:22:48.871Z,4.20
2018-09-16T03:25:17.388Z,4.40
2018-09-16T03:27:45.969Z,4.10
2018-09-16T03:30:15.271Z,3.97
2018-09-16T03:32:44.104Z,4.20
2018-09-16T03:35:12.635Z,4.30
2018-09-16T03:37:41.354Z,4.40
2018-09-16T03:40:09.867Z,3.67
2018-09-16T03:42:38.374Z,4.03
2018-09-16T03:45:07.797Z,4.27
2018-09-16T03:47:36.338Z,4.40
2018-09-16T03:50:05.371Z,4.40
2018-09-16T03:52:33.950Z,4.00
2018-09-16T03:55:02.849Z,3.43
2018-09-16T03:57:31.540Z,4.07
2018-09-16T04:00:00.988Z,3.83
2018-09-16T04:02:29.689Z,4.20
2018-09-16T04:04:58.443Z,3.90
2018-09-16T04:07:26.993Z,3.90
2018-09-16T04:09:55.735Z,3.67
2018-09-16T04:12:24.231Z,4.10
2018-09-16T04:14:52.862Z,4.20
2018-09-16T04:17:21.367Z,4.43
2018-09-16T04:19:49.970Z,3.87
2018-09-16T04:22:18.585Z,4.33
2018-09-16T04:24:47.857Z,4.43
2018-09-16T04:27:16.387Z,4.00
2018-09-16T04:29:45.291Z,4.00
2018-09-16T04:32:14.063Z,3.83
2018-09-16T04:34:42.578Z,4.33
2018-09-16T04:37:11.112Z,4.57
2018-09-16T04:39:40.015Z,3.70
2018-09-16T04:42:09.077Z,3.70
2018-09-16T04:44:37.939Z,4.30
2018-09-16T04:47:06.832Z,3.90
2018-09-16T04:49:36.607Z,4.13
2018-09-16T04:52:05.890Z,4.23
2018-09-16T04:54:34.556Z,4.23
2018-09-16T04:57:03.293Z,4.50
2018-09-16T04:59:32.135Z,3.97
2018-09-16T05:02:01.506Z,4.10
2018-09-16T05:04:30.226Z,4.40
2018-09-16T05:06:58.938Z,3.93
2018-09-16T05:09:27.883Z,3.87
2018-09-16T05:11:56.397Z,4.00
2018-09-16T05:14:25.014Z,4.00
2018-09-16T05:16:53.601Z,3.70
2018-09-16T05:19:22.126Z,3.80
2018-09-16T05:21:50.806Z,4.07
2018-09-16T05:24:19.365Z,4.70
2018-09-16T05:26:47.902Z,4.10
2018-09-16T05:29:17.304Z,4.47
2018-09-16T05:31:46.094Z,4.30
2018-09-16T05:34:14.680Z,4.57
2018-09-16T05:36:43.625Z,4.50
2018-09-16T05:39:13.261Z,4.20
2018-09-16T05:41:42.146Z,4.10
2018-09-16T05:44:11.056Z,3.90
2018-09-16T05:46:39.649Z,5.17
2018-09-16T05:49:08.176Z,4.87
2018-09-16T05:51:36.779Z,4.23
2018-09-16T05:54:05.296Z,4.40
2018-09-16T05:56:34.521Z,4.33
2018-09-16T05:59:03.657Z,3.80
2018-09-16T06:01:32.349Z,5.30
2018-09-16T06:04:00.931Z,4.70
2018-09-16T06:06:29.719Z,4.23
2018-09-16T06:08:58.314Z,5.10
2018-09-16T06:11:26.940Z,4.80
2018-09-16T06:13:55.555Z,4.43
2018-09-16T06:16:24.296Z,4.90
2018-09-16T06:18:53.591Z,4.93
2018-09-16T06:21:22.672Z,4.70
2018-09-16T06:23:51.606Z,5.27
2018-09-16T06:26:20.356Z,5.13
2018-09-16T06:28:49.573Z,5.63
2018-09-16T06:31:18.269Z,5.30
2018-09-16T06:33:47.055Z,5.40
2018-09-16T06:36:16.655Z,5.50
2018-09-16T06:38:45.207Z,5.97
2018-09-16T06:41:13.772Z,6.27
2018-09-16T06:43:42.795Z,5.60
2018-09-16T06:46:11.764Z,5.43
2018-09-16T06:48:40.318Z,5.20
2018-09-16T06:51:08.848Z,5.40
2018-09-16T06:53:37.748Z,5.00
2018-09-16T06:56:06.791Z,5.53
2018-09-16T06:58:35.364Z,4.83
2018-09-16T07:01:04.027Z,5.17
2018-09-16T07:03:32.851Z,5.00
2018-09-16T07:06:02.009Z,5.50
2018-09-16T07:08:30.692Z,4.90
2018-09-16T07:10:59.332Z,5.47
2018-09-16T07:13:28.577Z,5.27
2018-09-16T07:15:57.577Z,5.00
2018-09-16T07:18:26.471Z,4.70
2018-09-16T07:20:55.136Z,4.80
2018-09-16T07:23:24.073Z,4.73
2018-09-16T07:25:52.943Z,4.90
2018-09-16T07:28:22.369Z,4.10
2018-09-16T07:30:50.903Z,4.13
2018-09-16T07:33:19.738Z,4.63
2018-09-16T07:35:48.705Z,4.50
2018-09-16T07:38:17.836Z,4.70
2018-09-16T07:40:46.394Z,4.30
2018-09-16T07:43:15.240Z,4.63
2018-09-16T07:45:44.147Z,4.20
2018-09-16T07:48:12.688Z,3.83
2018-09-16T07:50:41.419Z,4.13
2018-09-16T07:53:10.017Z,3.63
2018-09-16T07:55:39.427Z,4.30
2018-09-16T07:58:08.023Z,4.37
2018-09-16T08:00:36.609Z,4.57
2018-09-16T08:03:06.010Z,4.30
2018-09-16T08:05:34.622Z,3.83
2018-09-16T08:08:03.153Z,3.73
2018-09-16T08:10:31.864Z,3.83
2018-09-16T08:13:00.655Z,3.30
2018-09-16T08:15:29.991Z,4.10
2018-09-16T08:17:59.052Z,3.57
2018-09-16T08:20:27.657Z,3.70
2018-09-16T08:22:56.391Z,3.50
2018-09-16T08:25:26.713Z,3.50
2018-09-16T08:27:55.611Z,3.23
2018-09-16T08:30:24.463Z,3.00
2018-09-16T08:32:53.590Z,3.20
2018-09-16T08:35:22.184Z,3.13
2018-09-16T08:37:50.846Z,2.83
2018-09-16T08:40:19.461Z,2.53
2018-09-16T08:42:48.167Z,3.03
2018-09-16T08:45:16.905Z,3.00
2018-09-16T08:47:45.540Z,2.80
2018-09-16T08:50:15.563Z,2.80
2018-09-16T08:52:44.326Z,3.03
2018-09-16T08:55:13.920Z,3.20
2018-09-16T08:57:42.523Z,2.60
2018-09-16T09:00:11.415Z,3.10
2018-09-16T09:02:40.151Z,2.90
2018-09-16T09:05:09.279Z,2.33
2018-09-16T09:07:37.853Z,2.57
2018-09-16T09:10:06.512Z,2.90
2018-09-16T09:12:35.146Z,2.90
2018-09-16T09:15:03.988Z,2.70
2018-09-16T09:17:32.554Z,2.53
2018-09-16T09:20:02.677Z,2.70
2018-09-16T09:22:33.146Z,3.10
2018-09-16T09:25:01.931Z,2.90
2018-09-16T09:27:31.829Z,2.83
2018-09-16T09:30:00.608Z,3.27
2018-09-16T09:32:30.394Z,3.23
2018-09-16T09:34:59.491Z,2.97
2018-09-16T09:37:28.300Z,3.43
2018-09-16T09:39:56.885Z,3.23
2018-09-16T09:42:25.734Z,2.93
2018-09-16T09:44:54.519Z,3.47
2018-09-16T09:47:23.520Z,2.80
2018-09-16T09:49:53.019Z,2.90
2018-09-16T09:52:21.738Z,2.93
2018-09-16T09:54:50.223Z,3.40
2018-09-16T09:57:19.060Z,2.80
2018-09-16T09:59:47.885Z,2.80
2018-09-16T10:02:16.707Z,3.23
2018-09-16T10:04:45.393Z,3.60
2018-09-16T10:07:15.143Z,3.10
2018-09-16T10:09:43.972Z,3.23
2018-09-16T10:12:12.631Z,3.20
2018-09-16T10:14:41.471Z,3.43
2018-09-16T10:17:10.174Z,3.10
2018-09-16T10:19:39.084Z,3.17
2018-09-16T10:22:07.736Z,3.17
2018-09-16T10:24:36.403Z,3.73
2018-09-16T10:27:05.672Z,3.17
2018-09-16T10:29:34.581Z,2.80
2018-09-16T10:32:03.627Z,3.20
2018-09-16T10:34:32.542Z,3.37
2018-09-16T10:37:01.100Z,3.60
2018-09-16T10:39:30.016Z,3.00
2018-09-16T10:41:58.583Z,3.47
2018-09-16T10:44:27.277Z,3.40
2018-09-16T10:46:55.912Z,3.30
2018-09-16T10:49:24.419Z,3.40
2018-09-16T10:51:53.062Z,2.67
2018-09-16T10:54:21.795Z,2.77
2018-09-16T10:56:51.976Z,3.20
2018-09-16T10:59:20.560Z,3.00
2018-09-16T11:01:49.518Z,2.80
2018-09-16T11:04:18.032Z,3.33
2018-09-16T11:06:46.763Z,3.00
2018-09-16T11:09:16.511Z,3.33
2018-09-16T11:11:45.316Z,2.77
2018-09-16T11:14:14.305Z,2.90
2018-09-16T11:16:43.571Z,3.50
2018-09-16T11:19:12.089Z,3.40
2018-09-16T11:21:40.924Z,2.63
2018-09-16T11:24:09.572Z,3.13
2018-09-16T11:26:38.463Z,2.90
2018-09-16T11:29:07.356Z,2.87
2018-09-16T11:31:36.986Z,2.90
2018-09-16T11:34:06.158Z,3.10
2018-09-16T11:36:34.717Z,3.53
2018-09-16T11:39:04.347Z,2.90
2018-09-16T11:41:33.097Z,2.93
2018-09-16T11:44:01.704Z,2.73
2018-09-16T11:46:31.778Z,3.07
2018-09-16T11:49:00.819Z,2.70
2018-09-16T11:51:29.874Z,2.80
2018-09-16T11:53:59.025Z,2.63
2018-09-16T11:56:27.631Z,2.90
2018-09-16T11:58:57.891Z,2.90
2018-09-16T12:01:26.921Z,2.90
2018-09-16T12:03:56.410Z,2.77
2018-09-16T12:06:25.358Z,2.37
2018-09-16T12:08:55.113Z,3.20
2018-09-16T12:11:24.666Z,2.90
2018-09-16T12:13:54.142Z,2.57
2018-09-16T12:16:22.836Z,2.60
2018-09-16T12:18:51.555Z,2.93
2018-09-16T12:21:20.316Z,2.60
2018-09-16T12:23:49.112Z,3.17
2018-09-16T12:26:18.056Z,2.63
2018-09-16T12:28:47.968Z,2.37
2018-09-16T12:31:16.962Z,2.93
2018-09-16T12:33:45.704Z,2.60
2018-09-16T12:36:14.763Z,2.40
2018-09-16T12:38:43.414Z,2.63
2018-09-16T12:41:12.589Z,3.00
2018-09-16T12:43:41.256Z,2.57
2018-09-16T12:46:10.816Z,3.37
2018-09-16T12:48:39.379Z,2.53
2018-09-16T12:51:08.618Z,3.03
2018-09-16T12:53:37.828Z,2.50
2018-09-16T12:56:06.829Z,2.50
2018-09-16T12:58:35.435Z,2.50
2018-09-16T13:01:04.409Z,2.50
2018-09-16T13:03:34.776Z,3.10
2018-09-16T13:06:03.370Z,2.90
2018-09-16T13:08:32.288Z,3.00
2018-09-16T13:11:01.107Z,2.73
2018-09-16T13:13:29.770Z,2.90
2018-09-16T13:15:58.904Z,2.83
2018-09-16T13:18:27.750Z,3.07
2018-09-16T13:20:56.587Z,2.83
2018-09-16T13:23:25.925Z,2.60
2018-09-16T13:25:54.711Z,2.47
2018-09-16T13:28:23.319Z,2.80
2018-09-16T13:30:52.494Z,2.73
2018-09-16T13:33:21.406Z,2.77
2018-09-16T13:35:50.772Z,3.00
2018-09-16T13:38:20.292Z,2.27
2018-09-16T13:40:49.513Z,2.80
2018-09-16T13:43:18.503Z,2.30
2018-09-16T13:45:47.075Z,2.40
2018-09-16T13:48:15.659Z,2.70
2018-09-16T13:50:45.286Z,2.80
2018-09-16T13:53:14.260Z,2.67
2018-09-16T13:55:42.958Z,3.00
2018-09-16T13:58:13.131Z,2.90
2018-09-16T14:00:41.797Z,2.70
2018-09-16T14:03:10.667Z,2.70
2018-09-16T14:05:39.563Z,3.10
2018-09-16T14:08:08.082Z,3.23
2018-09-16T14:10:37.127Z,3.10
2018-09-16T14:13:06.443Z,3.00
2018-09-16T14:15:35.380Z,2.90
2018-09-16T14:18:04.164Z,2.80
2018-09-16T14:20:32.904Z,2.70
2018-09-16T14:23:02.969Z,3.07
2018-09-16T14:25:32.026Z,2.73
2018-09-16T14:28:00.763Z,2.90
2018-09-16T14:30:29.524Z,3.10
2018-09-16T14:32:58.497Z,3.10
2018-09-16T14:35:27.241Z,2.60
2018-09-16T14:37:56.425Z,3.07
2018-09-16T14:40:25.165Z,2.70
2018-09-16T14:42:54.515Z,2.97
2018-09-16T14:45:23.559Z,3.00
2018-09-16T14:47:52.047Z,2.80
2018-09-16T14:50:21.291Z,3.17
2018-09-16T14:52:50.240Z,2.87
2018-09-16T14:55:20.236Z,2.87
2018-09-16T14:57:49.542Z,3.00
2018-09-16T15:00:19.122Z,3.03
2018-09-16T15:02:48.778Z,2.90
2018-09-16T15:05:18.279Z,3.17
2018-09-16T15:07:47.902Z,2.70
2018-09-16T15:10:17.297Z,3.10
2018-09-16T15:12:46.162Z,2.80
2018-09-16T15:15:14.744Z,2.80
2018-09-16T15:17:44.477Z,2.70
2018-09-16T15:20:13.709Z,3.10
2018-09-16T15:22:42.260Z,2.93
2018-09-16T15:25:12.288Z,3.03
2018-09-16T15:27:41.550Z,3.23
2018-09-16T15:30:10.120Z,3.53
2018-09-16T15:32:39.458Z,3.13
2018-09-16T15:35:08.127Z,2.77
2018-09-16T15:37:36.954Z,2.87
2018-09-16T15:40:05.771Z,2.90
2018-09-16T15:42:34.656Z,3.20
2018-09-16T15:45:05.029Z,3.00
2018-09-16T15:47:34.945Z,3.20
2018-09-16T15:50:06.411Z,3.13
2018-09-16T15:52:35.673Z,3.20
2018-09-16T15:55:07.034Z,3.00
2018-09-16T15:57:36.148Z,2.93
2018-09-16T16:00:07.059Z,3.40
2018-09-16T16:02:35.942Z,3.20
2018-09-16T16:05:05.913Z,3.40
2018-09-16T16:07:34.662Z,3.00
2018-09-16T16:10:04.008Z,3.50
2018-09-16T16:12:33.815Z,2.93
2018-09-16T16:15:02.343Z,2.97
2018-09-16T16:17:32.331Z,3.13
2018-09-16T16:20:01.727Z,3.03
2018-09-16T16:22:30.341Z,3.30
2018-09-16T16:24:59.161Z,3.00
2018-09-16T16:27:28.339Z,3.53
2018-09-16T16:29:57.203Z,3.43
2018-09-16T16:32:26.643Z,3.33
2018-09-16T16:34:55.931Z,3.27
2018-09-16T16:37:24.493Z,3.70
2018-09-16T16:39:53.384Z,3.43
2018-09-16T16:42:22.952Z,3.50
2018-09-16T16:44:51.931Z,3.50
2018-09-16T16:47:20.592Z,3.37
2018-09-16T16:49:49.363Z,3.43
2018-09-16T16:52:18.470Z,3.77
2018-09-16T16:54:47.216Z,3.50
2018-09-16T16:57:16.224Z,3.60
2018-09-16T16:59:44.806Z,3.80
2018-09-16T17:02:13.906Z,3.20
2018-09-16T17:04:42.521Z,3.77
2018-09-16T17:07:11.737Z,3.40
2018-09-16T17:09:40.717Z,3.57
2018-09-16T17:12:10.129Z,3.57
2018-09-16T17:14:39.537Z,3.87
2018-09-16T17:17:09.586Z,3.80
2018-09-16T17:19:38.624Z,3.43
2018-09-16T17:22:08.007Z,3.67
2018-09-16T17:24:37.170Z,3.47
2018-09-16T17:27:06.593Z,3.40
2018-09-16T17:29:35.156Z,3.37
2018-09-16T17:32:04.227Z,3.50
2018-09-16T17:34:32.920Z,3.73
2018-09-16T17:37:01.665Z,3.70
2018-09-16T17:39:30.539Z,3.77
2018-09-16T17:41:59.597Z,3.40
2018-09-16T17:44:28.907Z,4.00
2018-09-16T17:46:58.385Z,3.87
2018-09-16T17:49:27.612Z,3.43
2018-09-16T17:51:56.367Z,3.97
2018-09-16T17:54:25.013Z,4.33
2018-09-16T17:56:53.677Z,3.90
2018-09-16T17:59:23.063Z,4.07
2018-09-16T18:01:51.887Z,4.57
2018-09-16T18:04:21.272Z,4.50
2018-09-16T18:06:49.919Z,4.27
2018-09-16T18:09:18.656Z,4.80
2018-09-16T18:11:47.636Z,4.90
2018-09-16T18:14:16.979Z,4.40
2018-09-16T18:16:45.880Z,5.27
2018-09-16T18:19:14.396Z,4.53
2018-09-16T18:21:43.565Z,4.90
2018-09-16T18:24:12.403Z,5.23
2018-09-16T18:26:42.217Z,4.40
2018-09-16T18:29:10.991Z,5.47
2018-09-16T18:31:40.022Z,5.43
2018-09-16T18:34:09.376Z,6.33
2018-09-16T18:36:39.099Z,7.03
2018-09-16T18:39:09.967Z,6.83
2018-09-16T18:41:38.745Z,5.83
2018-09-16T18:44:07.275Z,6.00
2018-09-16T18:46:35.947Z,5.93
2018-09-16T18:49:06.253Z,5.50
2018-09-16T18:51:35.251Z,5.40
2018-09-16T18:54:04.810Z,6.00
2018-09-16T18:56:34.419Z,6.07
2018-09-16T18:59:03.012Z,5.43
2018-09-16T19:01:33.642Z,5.10
2018-09-16T19:04:02.225Z,5.77
2018-09-16T19:06:30.884Z,5.37
2018-09-16T19:08:59.539Z,5.47
2018-09-16T19:11:28.658Z,5.23
2018-09-16T19:13:57.470Z,5.63
2018-09-16T19:16:26.261Z,6.03
2018-09-16T19:18:54.789Z,5.87
2018-09-16T19:21:23.483Z,6.20
2018-09-16T19:23:52.319Z,6.20
2018-09-16T19:26:21.271Z,6.10
2018-09-16T19:28:50.520Z,6.03
2018-09-16T19:31:19.403Z,6.13
2018-09-16T19:33:48.748Z,5.50
2018-09-16T19:36:18.687Z,6.13
2018-09-16T19:38:47.323Z,5.43
2018-09-16T19:41:16.004Z,6.10
2018-09-16T19:43:45.591Z,5.27
2018-09-16T19:46:15.733Z,5.30
2018-09-16T19:48:44.811Z,5.47
2018-09-16T19:51:13.447Z,6.53
2018-09-16T19:53:42.602Z,6.50
2018-09-16T19:56:11.301Z,6.37
2018-09-16T19:58:40.459Z,5.97
2018-09-16T20:01:09.331Z,6.30
2018-09-16T20:03:38.359Z,6.27
2018-09-16T20:06:11.201Z,6.27
2018-09-16T20:08:40.217Z,6.90
2018-09-16T20:11:09.218Z,6.63
2018-09-16T20:13:37.726Z,6.17
2018-09-16T20:16:06.319Z,6.83
2018-09-16T20:18:35.135Z,7.07
2018-09-16T20:21:03.888Z,6.67
2018-09-16T20:23:32.379Z,6.90
2018-09-16T20:26:01.301Z,5.93
2018-09-16T20:28:29.939Z,7.03
2018-09-16T20:30:58.697Z,7.00
2018-09-16T20:33:27.332Z,6.10
2018-09-16T20:35:56.058Z,6.70
2018-09-16T20:38:25.314Z,7.07
2018-09-16T20:40:54.504Z,6.40
2018-09-16T20:43:23.596Z,6.70
2018-09-16T20:45:53.126Z,6.83
2018-09-16T20:48:22.805Z,5.87
2018-09-16T20:50:51.412Z,6.43
2018-09-16T20:53:20.302Z,7.37
2018-09-16T20:55:51.762Z,7.27
2018-09-16T20:58:20.324Z,6.67
2018-09-16T21:00:49.319Z,7.07
2018-09-16T21:03:18.159Z,7.57
2018-09-16T21:05:46.985Z,6.60
2018-09-16T21:08:15.846Z,7.20
2018-09-16T21:10:44.459Z,6.90
2018-09-16T21:13:13.667Z,7.77
2018-09-16T21:15:42.375Z,7.00
2018-09-16T21:18:11.100Z,7.77
2018-09-16T21:20:39.577Z,7.80
2018-09-16T21:23:08.163Z,7.60
2018-09-16T21:25:36.784Z,7.90
2018-09-16T21:28:05.772Z,7.10
2018-09-16T21:30:34.848Z,7.50
2018-09-16T21:33:03.440Z,7.30
2018-09-16T21:35:33.355Z,7.67
2018-09-16T21:38:02.364Z,7.10
2018-09-16T21:40:31.140Z,8.13
2018-09-16T21:42:59.708Z,7.90
2018-09-16T21:45:28.413Z,8.77
2018-09-16T21:47:57.644Z,8.90
2018-09-16T21:50:26.295Z,9.00
2018-09-16T21:52:56.035Z,8.63
2018-09-16T21:55:24.678Z,8.70
2018-09-16T21:57:53.378Z,8.03
2018-09-16T22:00:23.592Z,7.93
2018-09-16T22:02:52.467Z,8.67
2018-09-16T22:05:21.127Z,8.00
2018-09-16T22:07:49.974Z,8.30
2018-09-16T22:10:18.743Z,7.77
2018-09-16T22:12:47.386Z,7.90
2018-09-16T22:15:16.025Z,7.53
2018-09-16T22:17:45.219Z,7.50
2018-09-16T22:20:13.934Z,7.67
2018-09-16T22:22:43.276Z,7.97
2018-09-16T22:25:11.904Z,7.27
2018-09-16T22:27:40.579Z,7.83
2018-09-16T22:30:09.340Z,8.10
2018-09-16T22:32:38.663Z,8.20
2018-09-16T22:35:07.321Z,7.20
2018-09-16T22:37:35.838Z,8.40
2018-09-16T22:40:04.484Z,8.23
2018-09-16T22:42:33.123Z,8.53
2018-09-16T22:45:02.322Z,8.53
2018-09-16T22:47:31.198Z,7.47
2018-09-16T22:49:59.793Z,8.27
2018-09-16T22:52:28.535Z,7.77
2018-09-16T22:54:57.166Z,8.10
2018-09-16T22:57:25.804Z,8.47
2018-09-16T22:59:54.639Z,7.93
2018-09-16T23:02:23.517Z,8.70
2018-09-16T23:04:52.729Z,7.63
2018-09-16T23:07:21.279Z,8.50
2018-09-16T23:09:49.869Z,8.50
2018-09-16T23:12:18.575Z,7.90
2018-09-16T23:14:47.229Z,8.10
2018-09-16T23:17:15.975Z,8.67
2018-09-16T23:19:44.639Z,9.00
2018-09-16T23:22:13.363Z,8.20
2018-09-16T23:24:42.806Z,7.83
2018-09-16T23:27:11.629Z,7.70
2018-09-16T23:29:40.228Z,7.33
2018-09-16T23:32:09.374Z,8.23
2018-09-16T23:34:38.591Z,7.90
2018-09-16T23:37:08.114Z,8.07
2018-09-16T23:39:37.056Z,7.77
2018-09-16T23:42:05.711Z,8.20
2018-09-16T23:44:34.375Z,8.73
2018-09-16T23:47:02.928Z,7.80
2018-09-16T23:49:31.836Z,7.93
2018-09-16T23:52:00.357Z,7.97
2018-09-16T23:54:28.909Z,7.83
2018-09-16T23:56:57.459Z,7.77
2018-09-16T23:59:26.249Z,7.37
